Time;durP1;ratioP1;P1;durP2;ratioP2;P2;SDS_P1;SDS_P2;PMS_P1;PMS_P2;Temp;Humidity;BMP_temperature;BMP_pressure;BME280_temperature;BME280_humidity;BME280_pressure;Samples;Min_cycle;Max_cycle;Signal;HPM_P1;HPM_P2
2022/08/04 00:00:12;;;;;;;12.07;4.18;;;;;;;;;;5033437;28;20718;-55
2022/08/04 00:02:56;;;;;;;14.63;3.60;;;;;;;;;;5033198;28;20025;-56
2022/08/04 00:05:30;;;;;;;14.57;4.25;;;;;;;;;;5033221;28;20179;-55
2022/08/04 00:08:00;;;;;;;14.85;4.05;;;;;;;;;;5033316;28;20457;-52
2022/08/04 00:10:28;;;;;;;17.08;4.32;;;;;;;;;;5032379;28;20503;-53
2022/08/04 00:12:56;;;;;;;15.75;3.67;;;;;;;;;;5033837;28;20032;-54
2022/08/04 00:15:24;;;;;;;15.60;4.25;;;;;;;;;;5033843;28;20041;-54
2022/08/04 00:18:00;;;;;;;14.52;3.97;;;;;;;;;;5033973;28;20028;-54
2022/08/04 00:20:29;;;;;;;13.18;4.25;;;;;;;;;;5033753;28;20391;-54
2022/08/04 00:22:57;;;;;;;17.77;4.05;;;;;;;;;;5013733;28;20065;-55
2022/08/04 00:25:24;;;;;;;16.27;4.45;;;;;;;;;;5015875;28;20038;-55
2022/08/04 00:27:51;;;;;;;17.08;4.00;;;;;;;;;;5018740;28;20026;-59
2022/08/04 00:30:18;;;;;;;16.67;4.00;;;;;;;;;;5019758;28;20570;-59
2022/08/04 00:32:46;;;;;;;18.10;4.30;;;;;;;;;;5033672;28;20021;-52
2022/08/04 00:35:16;;;;;;;17.50;3.92;;;;;;;;;;5022197;28;20025;-59
2022/08/04 00:37:46;;;;;;;27.88;4.60;;;;;;;;;;5017912;28;20037;-56
2022/08/04 00:40:25;;;;;;;17.30;4.00;;;;;;;;;;5028379;28;20061;-58
2022/08/04 00:43:08;;;;;;;17.27;4.10;;;;;;;;;;5030666;28;20044;-59
2022/08/04 00:45:34;;;;;;;;;;;;;;;;;;5032664;28;20057;-58
2022/08/04 00:48:19;;;;;;;18.02;4.35;;;;;;;;;;5033052;28;19913;-58
2022/08/04 00:50:55;;;;;;;21.02;4.47;;;;;;;;;;5033265;28;20040;-58
2022/08/04 00:53:40;;;;;;;17.50;4.93;;;;;;;;;;5032923;28;20036;-59
2022/08/04 00:56:26;;;;;;;20.85;5.63;;;;;;;;;;5033111;28;20041;-58
2022/08/04 00:59:11;;;;;;;28.10;5.57;;;;;;;;;;5012487;28;20030;-58
2022/08/04 01:01:56;;;;;;;24.77;5.32;;;;;;;;;;5029933;28;20029;-59
2022/08/04 01:04:35;;;;;;;24.88;5.75;;;;;;;;;;5031508;28;20040;-59
2022/08/04 01:07:29;;;;;;;24.27;6.20;;;;;;;;;;5028936;28;20118;-59
2022/08/04 01:10:06;;;;;;;24.92;6.00;;;;;;;;;;5028437;28;20054;-59
2022/08/04 01:12:55;;;;;;;22.85;6.35;;;;;;;;;;5026073;28;20033;-59
2022/08/04 01:15:41;;;;;;;23.15;6.35;;;;;;;;;;5029026;28;20508;-58
2022/08/04 01:18:08;;;;;;;25.30;6.68;;;;;;;;;;5025090;28;20103;-59
2022/08/04 01:20:42;;;;;;;19.42;6.13;;;;;;;;;;5032535;28;20428;-58
2022/08/04 01:23:26;;;;;;;20.75;5.85;;;;;;;;;;5032355;28;20480;-59
2022/08/04 01:25:54;;;;;;;29.02;6.75;;;;;;;;;;5013699;28;20029;-58
2022/08/04 01:28:33;;;;;;;18.52;5.75;;;;;;;;;;5028246;28;20143;-59
2022/08/04 01:31:07;;;;;;;18.88;5.57;;;;;;;;;;5028738;28;20034;-59
2022/08/04 01:33:37;;;;;;;21.15;6.10;;;;;;;;;;5030514;28;20098;-60
2022/08/04 01:36:05;;;;;;;20.95;6.30;;;;;;;;;;5030971;28;20105;-59
2022/08/04 01:38:36;;;;;;;24.05;5.82;;;;;;;;;;5031780;28;20032;-59
2022/08/04 01:41:04;;;;;;;17.50;5.53;;;;;;;;;;5030902;28;20030;-59
2022/08/04 01:43:33;;;;;;;24.27;5.93;;;;;;;;;;5030659;28;20057;-59
2022/08/04 01:46:01;;;;;;;27.70;6.22;;;;;;;;;;5031885;28;20040;-59
2022/08/04 01:48:28;;;;;;;26.13;6.38;;;;;;;;;;5031980;28;20543;-59
2022/08/04 01:51:00;;;;;;;20.75;5.68;;;;;;;;;;5032080;28;20029;-58
2022/08/04 01:53:31;;;;;;;21.00;6.30;;;;;;;;;;5031648;28;20043;-59
2022/08/04 01:55:58;;;;;;;18.15;6.10;;;;;;;;;;5031068;28;20025;-59
2022/08/04 01:58:25;;;;;;;22.02;6.40;;;;;;;;;;5031570;28;20033;-57
2022/08/04 02:00:56;;;;;;;20.52;5.75;;;;;;;;;;5031713;28;20419;-58
2022/08/04 02:03:24;;;;;;;21.73;6.03;;;;;;;;;;5031245;28;20037;-59
2022/08/04 02:05:54;;;;;;;22.17;6.68;;;;;;;;;;5028962;28;20503;-59
2022/08/04 02:08:30;;;;;;;29.10;5.63;;;;;;;;;;5031287;28;20032;-59
2022/08/04 02:11:04;;;;;;;19.58;6.53;;;;;;;;;;5030872;28;20033;-58
2022/08/04 02:13:41;;;;;;;22.50;6.00;;;;;;;;;;5031657;28;20022;-59
2022/08/04 02:16:16;;;;;;;22.02;5.68;;;;;;;;;;5031666;28;20033;-59
2022/08/04 02:18:57;;;;;;;16.02;5.55;;;;;;;;;;5031503;28;20068;-59
2022/08/04 02:21:26;;;;;;;20.65;5.43;;;;;;;;;;5030785;28;20120;-59
2022/08/04 02:24:14;;;;;;;17.55;5.90;;;;;;;;;;5031512;28;20036;-59
2022/08/04 02:26:42;;;;;;;12.90;5.13;;;;;;;;;;5031555;28;20399;-59
2022/08/04 02:29:09;;;;;;;17.00;5.60;;;;;;;;;;5031664;28;20537;-59
2022/08/04 02:31:44;;;;;;;22.52;5.95;;;;;;;;;;5031765;28;20083;-59
2022/08/04 02:34:25;;;;;;;20.30;6.35;;;;;;;;;;5031835;28;20026;-59
2022/08/04 02:36:54;;;;;;;18.02;5.93;;;;;;;;;;5032265;28;20487;-59
2022/08/04 02:39:23;;;;;;;17.33;5.30;;;;;;;;;;5031677;28;20034;-59
2022/08/04 02:41:50;;;;;;;17.13;5.47;;;;;;;;;;5029747;28;20065;-60
2022/08/04 02:44:21;;;;;;;23.92;5.35;;;;;;;;;;5030293;28;20021;-59
2022/08/04 02:46:51;;;;;;;15.87;4.73;;;;;;;;;;5022665;28;20537;-59
2022/08/04 02:49:19;;;;;;;19.42;5.78;;;;;;;;;;5021291;28;20032;-60
2022/08/04 02:51:47;;;;;;;21.23;5.75;;;;;;;;;;5029358;28;20029;-59
2022/08/04 02:54:16;;;;;;;18.77;5.10;;;;;;;;;;5013717;28;20033;-59
2022/08/04 02:56:44;;;;;;;24.60;5.07;;;;;;;;;;5021436;28;20030;-59
2022/08/04 02:59:12;;;;;;;14.02;5.25;;;;;;;;;;5031956;28;20539;-59
2022/08/04 03:01:40;;;;;;;15.00;5.18;;;;;;;;;;5031955;28;20021;-59
2022/08/04 03:04:09;;;;;;;19.95;5.88;;;;;;;;;;5031725;28;20037;-59
2022/08/04 03:06:36;;;;;;;15.30;4.95;;;;;;;;;;5028599;28;20491;-59
2022/08/04 03:09:17;;;;;;;19.15;5.68;;;;;;;;;;5031780;28;20032;-59
2022/08/04 03:11:44;;;;;;;28.80;5.45;;;;;;;;;;5031598;28;20037;-59
2022/08/04 03:14:29;;;;;;;20.15;5.68;;;;;;;;;;5031892;28;20025;-59
2022/08/04 03:17:14;;;;;;;15.65;4.57;;;;;;;;;;5032033;28;20430;-59
2022/08/04 03:19:59;;;;;;;13.77;4.63;;;;;;;;;;5032029;28;20025;-59
2022/08/04 03:22:49;;;;;;;15.60;5.72;;;;;;;;;;5033509;28;20033;-59
2022/08/04 03:25:25;;;;;;;19.58;5.43;;;;;;;;;;5025549;28;20064;-59
2022/08/04 03:28:10;;;;;;;19.70;5.40;;;;;;;;;;5035506;28;20025;-59
2022/08/04 03:30:48;;;;;;;16.17;5.85;;;;;;;;;;5035305;28;20063;-59
2022/08/04 03:33:37;;;;;;;14.95;5.68;;;;;;;;;;5035254;28;20497;-58
2022/08/04 03:36:30;;;;;;;15.27;5.32;;;;;;;;;;5035379;28;20404;-58
2022/08/04 03:39:15;;;;;;;15.00;5.25;;;;;;;;;;5005207;28;20088;-59
2022/08/04 03:42:00;;;;;;;16.98;6.32;;;;;;;;;;5035159;28;20384;-59
2022/08/04 03:44:39;;;;;;;12.77;5.38;;;;;;;;;;5035234;28;20491;-59
2022/08/04 03:47:18;;;;;;;11.88;5.40;;;;;;;;;;5035019;28;20057;-59
2022/08/04 03:49:57;;;;;;;16.42;5.18;;;;;;;;;;5035247;28;20056;-59
2022/08/04 03:55:35;;;;;;;15.65;5.30;;;;;;;;;;5034981;28;20579;-59
2022/08/04 03:58:04;;;;;;;13.88;5.07;;;;;;;;;;5004812;28;20037;-59
2022/08/04 04:00:40;;;;;;;12.48;4.90;;;;;;;;;;5034926;28;20051;-59
2022/08/04 04:03:25;;;;;;;12.40;4.60;;;;;;;;;;5034595;28;20076;-59
2022/08/04 04:06:02;;;;;;;12.48;4.82;;;;;;;;;;5034389;28;20068;-59
2022/08/04 04:08:32;;;;;;;13.23;5.00;;;;;;;;;;5033456;28;20557;-59
2022/08/04 04:11:05;;;;;;;11.55;4.60;;;;;;;;;;5034680;28;20021;-59
2022/08/04 04:13:35;;;;;;;10.45;4.75;;;;;;;;;;5033474;28;20025;-59
2022/08/04 04:16:09;;;;;;;17.08;4.90;;;;;;;;;;5034582;28;20030;-59
2022/08/04 04:18:45;;;;;;;10.75;4.57;;;;;;;;;;5034390;28;20053;-59
2022/08/04 04:21:31;;;;;;;11.95;4.65;;;;;;;;;;5034497;28;20451;-59
2022/08/04 04:24:16;;;;;;;11.98;4.65;;;;;;;;;;5034288;28;20045;-59
2022/08/04 04:26:58;;;;;;;11.25;4.40;;;;;;;;;;5034387;28;20033;-59
2022/08/04 04:29:40;;;;;;;10.27;4.55;;;;;;;;;;5034354;28;20484;-59
2022/08/04 04:32:22;;;;;;;10.27;4.75;;;;;;;;;;5034207;28;20506;-59
2022/08/04 04:34:52;;;;;;;10.07;4.50;;;;;;;;;;5034104;28;20082;-59
2022/08/04 04:37:33;;;;;;;11.80;4.30;;;;;;;;;;5034266;28;20033;-59
2022/08/04 04:40:11;;;;;;;8.98;4.25;;;;;;;;;;5034093;28;20037;-59
2022/08/04 04:42:48;;;;;;;8.65;4.30;;;;;;;;;;5033744;28;20083;-60
2022/08/04 04:45:29;;;;;;;8.85;4.22;;;;;;;;;;5034001;28;20475;-59
2022/08/04 04:48:28;;;;;;;11.10;4.30;;;;;;;;;;5016153;28;20436;-59
2022/08/04 04:50:55;;;;;;;9.20;4.30;;;;;;;;;;4980219;28;20387;-59
2022/08/04 04:53:40;;;;;;;9.30;4.03;;;;;;;;;;5033802;28;20041;-59
2022/08/04 04:56:19;;;;;;;8.45;3.97;;;;;;;;;;5033841;28;20021;-59
2022/08/04 04:58:46;;;;;;;6.13;3.83;;;;;;;;;;5033609;28;20026;-59
2022/08/04 05:01:22;;;;;;;9.32;4.22;;;;;;;;;;5033607;28;20026;-59
2022/08/04 05:04:07;;;;;;;8.50;4.13;;;;;;;;;;5033355;28;20052;-59
2022/08/04 05:06:44;;;;;;;10.90;4.22;;;;;;;;;;5033480;28;20049;-59
2022/08/04 05:09:14;;;;;;;6.35;3.95;;;;;;;;;;5033607;28;20033;-59
2022/08/04 05:11:44;;;;;;;10.65;3.97;;;;;;;;;;5033539;28;20384;-59
2022/08/04 05:14:20;;;;;;;9.73;4.20;;;;;;;;;;5033451;28;20036;-59
2022/08/04 05:16:51;;;;;;;8.60;4.10;;;;;;;;;;5033447;28;20092;-59
2022/08/04 05:19:28;;;;;;;8.18;3.78;;;;;;;;;;5033394;28;20041;-59
2022/08/04 05:22:06;;;;;;;10.00;4.13;;;;;;;;;;5033201;28;20044;-59
2022/08/04 05:24:38;;;;;;;8.85;3.50;;;;;;;;;;5033284;28;20383;-60
2022/08/04 05:27:09;;;;;;;7.97;3.95;;;;;;;;;;5033290;28;20026;-59
2022/08/04 05:29:37;;;;;;;13.85;4.80;;;;;;;;;;5033280;28;20036;-59
2022/08/04 05:32:07;;;;;;;9.52;3.90;;;;;;;;;;5032885;28;20041;-59
2022/08/04 05:34:39;;;;;;;8.68;3.90;;;;;;;;;;5033052;28;20396;-59
2022/08/04 05:37:11;;;;;;;6.03;3.13;;;;;;;;;;5032887;28;20033;-59
2022/08/04 05:39:46;;;;;;;7.40;3.53;;;;;;;;;;5033010;28;20550;-59
2022/08/04 05:42:14;;;;;;;8.80;3.53;;;;;;;;;;5032741;28;20034;-59
2022/08/04 05:44:41;;;;;;;6.78;3.22;;;;;;;;;;5032552;28;20037;-59
2022/08/04 05:47:11;;;;;;;7.05;3.35;;;;;;;;;;5015059;28;20369;-59
2022/08/04 05:49:43;;;;;;;7.07;3.60;;;;;;;;;;5032760;28;20065;-59
2022/08/04 05:52:10;;;;;;;8.13;4.03;;;;;;;;;;5032789;28;20403;-59
2022/08/04 05:54:38;;;;;;;12.45;3.78;;;;;;;;;;5032784;28;20495;-59
2022/08/04 05:57:06;;;;;;;7.22;3.75;;;;;;;;;;5032733;28;20463;-59
2022/08/04 05:59:34;;;;;;;9.35;3.97;;;;;;;;;;5032726;28;20026;-59
2022/08/04 06:02:02;;;;;;;4.75;3.13;;;;;;;;;;5030470;28;20103;-59
2022/08/04 06:04:34;;;;;;;6.57;3.50;;;;;;;;;;5032602;28;20088;-59
2022/08/04 06:07:01;;;;;;;7.90;3.63;;;;;;;;;;5032496;28;20045;-59
2022/08/04 06:09:30;;;;;;;6.40;3.20;;;;;;;;;;5032600;28;20044;-60
2022/08/04 06:11:59;;;;;;;5.30;3.35;;;;;;;;;;5032478;28;20112;-59
2022/08/04 06:14:27;;;;;;;9.02;3.88;;;;;;;;;;5032583;28;20029;-59
2022/08/04 06:16:55;;;;;;;5.93;3.13;;;;;;;;;;5032424;28;20432;-59
2022/08/04 06:19:24;;;;;;;6.40;3.25;;;;;;;;;;5032512;28;20411;-59
2022/08/04 06:21:52;;;;;;;5.45;3.10;;;;;;;;;;5032361;28;20029;-59
2022/08/04 06:24:20;;;;;;;5.13;3.38;;;;;;;;;;5032519;28;20527;-59
2022/08/04 06:26:49;;;;;;;6.53;3.30;;;;;;;;;;5032425;28;20113;-59
2022/08/04 06:32:25;;;;;;;6.10;3.45;;;;;;;;;;5019182;28;20030;-59
2022/08/04 06:34:57;;;;;;;8.70;3.30;;;;;;;;;;5032448;28;20088;-59
2022/08/04 06:37:26;;;;;;;4.93;3.53;;;;;;;;;;5032303;28;20037;-59
2022/08/04 06:39:53;;;;;;;5.20;3.20;;;;;;;;;;5032433;28;20033;-59
2022/08/04 06:42:22;;;;;;;7.40;3.80;;;;;;;;;;5032223;28;20112;-59
2022/08/04 06:44:50;;;;;;;6.22;3.35;;;;;;;;;;5032372;28;20029;-60
2022/08/04 06:47:20;;;;;;;3.97;2.65;;;;;;;;;;5032273;28;20034;-59
2022/08/04 06:49:49;;;;;;;7.30;2.95;;;;;;;;;;5032252;28;20064;-59
2022/08/04 06:52:16;;;;;;;5.50;3.10;;;;;;;;;;5032188;28;20029;-59
2022/08/04 06:54:44;;;;;;;5.88;3.00;;;;;;;;;;5032273;28;20490;-59
2022/08/04 06:57:13;;;;;;;5.60;3.00;;;;;;;;;;5033726;28;20032;-59
2022/08/04 06:59:44;;;;;;;7.03;3.15;;;;;;;;;;5036037;28;20025;-59
2022/08/04 07:02:15;;;;;;;6.40;3.50;;;;;;;;;;5035729;28;20048;-59
2022/08/04 07:04:46;;;;;;;6.43;2.90;;;;;;;;;;5035966;28;20026;-59
2022/08/04 07:07:13;;;;;;;4.47;2.80;;;;;;;;;;5035795;28;20081;-59
2022/08/04 07:09:41;;;;;;;3.92;2.83;;;;;;;;;;5035861;28;20152;-59
2022/08/04 07:12:09;;;;;;;5.43;2.90;;;;;;;;;;5035664;28;20076;-59
2022/08/04 07:14:36;;;;;;;6.63;2.92;;;;;;;;;;5035776;28;20041;-59
2022/08/04 07:17:04;;;;;;;9.43;3.25;;;;;;;;;;5035629;28;20040;-59
2022/08/04 07:19:32;;;;;;;4.45;2.90;;;;;;;;;;5035569;28;20368;-59
2022/08/04 07:22:07;;;;;;;5.95;2.95;;;;;;;;;;5035398;28;20061;-59
2022/08/04 07:24:35;;;;;;;7.45;3.42;;;;;;;;;;5035573;28;20061;-59
2022/08/04 07:27:03;;;;;;;5.68;3.22;;;;;;;;;;5035577;28;20377;-59
2022/08/04 07:29:30;;;;;;;3.20;2.65;;;;;;;;;;5035561;28;20037;-59
2022/08/04 07:31:58;;;;;;;4.30;2.70;;;;;;;;;;5035388;28;20029;-59
2022/08/04 07:34:26;;;;;;;6.80;3.35;;;;;;;;;;5035413;28;20056;-59
2022/08/04 07:36:53;;;;;;;5.32;2.80;;;;;;;;;;5035203;28;20487;-59
2022/08/04 07:39:21;;;;;;;3.47;2.60;;;;;;;;;;5035288;28;20029;-59
2022/08/04 07:41:48;;;;;;;5.28;2.95;;;;;;;;;;5035090;28;20096;-60
2022/08/04 07:44:16;;;;;;;6.30;2.70;;;;;;;;;;5035144;28;20029;-59
2022/08/04 07:46:45;;;;;;;4.32;2.67;;;;;;;;;;5035491;28;20113;-59
2022/08/04 07:49:12;;;;;;;5.05;2.78;;;;;;;;;;5035005;28;20031;-59
2022/08/04 07:51:40;;;;;;;5.63;2.78;;;;;;;;;;5035005;28;20044;-59
2022/08/04 07:54:09;;;;;;;4.32;2.47;;;;;;;;;;5035179;28;20491;-59
2022/08/04 07:56:38;;;;;;;4.07;2.85;;;;;;;;;;5034841;28;20029;-59
2022/08/04 07:59:05;;;;;;;4.72;2.88;;;;;;;;;;5034861;28;20037;-59
2022/08/04 08:01:32;;;;;;;5.90;2.88;;;;;;;;;;5034894;28;20117;-59
2022/08/04 08:04:00;;;;;;;5.05;2.30;;;;;;;;;;5034714;28;20069;-59
2022/08/04 08:06:28;;;;;;;4.07;2.58;;;;;;;;;;5034507;28;20084;-59
2022/08/04 08:08:59;;;;;;;4.75;2.78;;;;;;;;;;5034287;28;20045;-60
2022/08/04 08:11:26;;;;;;;3.72;2.50;;;;;;;;;;5034513;28;20029;-59
2022/08/04 08:13:54;;;;;;;4.03;2.33;;;;;;;;;;5034600;28;20044;-59
2022/08/04 08:16:22;;;;;;;3.72;2.30;;;;;;;;;;5034642;28;20017;-59
2022/08/04 08:18:49;;;;;;;4.43;2.85;;;;;;;;;;5034491;28;20068;-59
2022/08/04 08:21:19;;;;;;;6.70;2.75;;;;;;;;;;5034533;28;20030;-59
2022/08/04 08:23:46;;;;;;;4.95;2.53;;;;;;;;;;5034305;28;20041;-59
2022/08/04 08:26:14;;;;;;;3.08;2.28;;;;;;;;;;5034448;28;20030;-59
2022/08/04 08:28:40;;;;;;;4.88;2.75;;;;;;;;;;5034338;28;20033;-59
2022/08/04 08:31:07;;;;;;;3.90;2.25;;;;;;;;;;5034373;28;20549;-59
2022/08/04 08:33:35;;;;;;;5.32;2.53;;;;;;;;;;5016363;28;20135;-59
2022/08/04 08:36:04;;;;;;;5.65;2.53;;;;;;;;;;5034206;28;20026;-59
2022/08/04 08:38:44;;;;;;;4.70;2.47;;;;;;;;;;5034257;28;20085;-59
2022/08/04 08:41:30;;;;;;;3.55;2.60;;;;;;;;;;5034165;28;20467;-59
2022/08/04 08:44:20;;;;;;;4.30;2.50;;;;;;;;;;5034003;28;20040;-59
2022/08/04 08:47:05;;;;;;;4.25;2.83;;;;;;;;;;4997291;28;20033;-59
2022/08/04 08:49:38;;;;;;;3.20;2.10;;;;;;;;;;5033929;28;20037;-59
2022/08/04 08:52:16;;;;;;;3.63;2.45;;;;;;;;;;5033864;28;20498;-59
2022/08/04 08:55:13;;;;;;;4.40;2.40;;;;;;;;;;5033930;28;20030;-60
2022/08/04 08:57:40;;;;;;;4.45;2.25;;;;;;;;;;5033827;28;20025;-59
2022/08/04 09:00:07;;;;;;;6.07;2.38;;;;;;;;;;5033708;28;20075;-59
2022/08/04 09:02:44;;;;;;;3.63;2.38;;;;;;;;;;5033549;28;20034;-59
2022/08/04 09:05:23;;;;;;;3.20;2.38;;;;;;;;;;5033530;28;20030;-59
2022/08/04 09:08:15;;;;;;;3.65;2.15;;;;;;;;;;5033594;28;20083;-59
2022/08/04 09:10:47;;;;;;;2.80;2.27;;;;;;;;;;5033575;28;20029;-59
2022/08/04 09:13:14;;;;;;;;;;;;;;;;;;5033882;28;20033;-59
2022/08/04 09:15:54;;;;;;;4.22;2.60;;;;;;;;;;5033478;28;19909;-59
2022/08/04 09:18:27;;;;;;;3.28;2.30;;;;;;;;;;5033470;28;20124;-59
2022/08/04 09:21:02;;;;;;;3.65;2.53;;;;;;;;;;5032481;28;20021;-59
2022/08/04 09:23:32;;;;;;;3.97;2.33;;;;;;;;;;5033041;28;20044;-59
2022/08/04 09:25:59;;;;;;;3.88;2.35;;;;;;;;;;5033514;28;20391;-59
2022/08/04 09:28:27;;;;;;;4.25;2.58;;;;;;;;;;5033164;28;20053;-59
2022/08/04 09:31:03;;;;;;;2.92;2.05;;;;;;;;;;5033142;28;20037;-59
2022/08/04 09:33:39;;;;;;;3.45;2.05;;;;;;;;;;5033075;28;20025;-59
2022/08/04 09:36:25;;;;;;;2.88;2.10;;;;;;;;;;5033097;28;20033;-59
2022/08/04 09:39:01;;;;;;;3.42;2.50;;;;;;;;;;5033077;28;20029;-59
2022/08/04 09:41:38;;;;;;;5.75;2.70;;;;;;;;;;5032851;28;20022;-59
2022/08/04 09:44:22;;;;;;;4.38;2.50;;;;;;;;;;5032939;28;20044;-59
2022/08/04 09:46:55;;;;;;;3.08;2.20;;;;;;;;;;5033004;28;20029;-59
2022/08/04 09:49:36;;;;;;;3.28;2.10;;;;;;;;;;5032916;28;20029;-59
2022/08/04 09:52:03;;;;;;;4.30;2.45;;;;;;;;;;5032865;28;20053;-59
2022/08/04 09:54:33;;;;;;;2.92;2.15;;;;;;;;;;5032868;28;20021;-59
2022/08/04 09:57:03;;;;;;;4.03;2.20;;;;;;;;;;5032840;28;20025;-59
2022/08/04 09:59:43;;;;;;;3.58;2.15;;;;;;;;;;5032655;28;20041;-59
2022/08/04 10:02:13;;;;;;;4.72;2.10;;;;;;;;;;5032659;28;20037;-59
2022/08/04 10:04:41;;;;;;;3.70;2.10;;;;;;;;;;5032715;28;20017;-59
2022/08/04 10:07:26;;;;;;;2.83;2.00;;;;;;;;;;5032525;28;20049;-59
2022/08/04 10:10:12;;;;;;;3.55;2.00;;;;;;;;;;5032667;28;20057;-59
2022/08/04 10:12:57;;;;;;;3.95;2.05;;;;;;;;;;5032443;28;20033;-59
2022/08/04 10:15:30;;;;;;;4.85;1.83;;;;;;;;;;5032639;28;20064;-59
2022/08/04 10:18:09;;;;;;;3.50;2.30;;;;;;;;;;5032589;28;20521;-59
2022/08/04 10:20:48;;;;;;;4.57;2.00;;;;;;;;;;5032489;28;20038;-59
2022/08/04 10:23:34;;;;;;;2.70;1.90;;;;;;;;;;5032007;28;20049;-59
2022/08/04 10:26:19;;;;;;;3.53;1.83;;;;;;;;;;5018731;28;20034;-59
2022/08/04 10:28:55;;;;;;;4.25;1.80;;;;;;;;;;5015251;28;20037;-59
2022/08/04 10:31:48;;;;;;;5.78;2.00;;;;;;;;;;5019342;28;20050;-59
2022/08/04 10:34:22;;;;;;;2.08;1.80;;;;;;;;;;5014064;28;20103;-59
2022/08/04 10:36:49;;;;;;;2.67;2.00;;;;;;;;;;5008442;28;20040;-60
2022/08/04 10:39:18;;;;;;;3.40;2.00;;;;;;;;;;5035144;28;20532;-60
2022/08/04 10:42:00;;;;;;;3.55;2.15;;;;;;;;;;5035257;28;20025;-59
2022/08/04 10:44:40;;;;;;;4.45;2.53;;;;;;;;;;5036233;28;20033;-59
2022/08/04 10:47:16;;;;;;;4.85;2.22;;;;;;;;;;5035881;28;20033;-59
2022/08/04 10:49:56;;;;;;;4.75;2.10;;;;;;;;;;5036234;28;20101;-59
2022/08/04 10:52:28;;;;;;;3.28;2.17;;;;;;;;;;5036079;28;20021;-59
2022/08/04 10:55:00;;;;;;;4.80;2.30;;;;;;;;;;5018340;28;20037;-59
2022/08/04 10:57:30;;;;;;;6.13;1.98;;;;;;;;;;5035976;28;20033;-59
2022/08/04 11:00:19;;;;;;;6.38;2.10;;;;;;;;;;5035732;28;20087;-56
2022/08/04 11:02:53;;;;;;;4.68;2.13;;;;;;;;;;5035738;28;20033;-57
2022/08/04 11:05:30;;;;;;;4.40;2.03;;;;;;;;;;5035688;28;20030;-58
2022/08/04 11:08:02;;;;;;;4.40;1.70;;;;;;;;;;5035363;28;20033;-57
2022/08/04 11:10:31;;;;;;;6.35;1.95;;;;;;;;;;5035277;28;20513;-59
2022/08/04 11:13:01;;;;;;;4.63;2.03;;;;;;;;;;5032780;28;20033;-58
2022/08/04 11:15:33;;;;;;;5.93;2.38;;;;;;;;;;5035390;28;20044;-57
2022/08/04 11:18:05;;;;;;;10.25;2.45;;;;;;;;;;5035481;28;20068;-54
2022/08/04 11:20:38;;;;;;;11.18;2.55;;;;;;;;;;5035164;28;20033;-61
2022/08/04 11:23:14;;;;;;;110.07;12.27;;;;;;;;;;5017338;28;20434;-55
2022/08/04 11:25:49;;;;;;;200.70;20.35;;;;;;;;;;5035360;28;20030;-53
2022/08/04 11:28:45;;;;;;;50.22;7.05;;;;;;;;;;5035008;28;20029;-56
2022/08/04 11:31:13;;;;;;;46.67;6.38;;;;;;;;;;4965082;28;20494;-55
2022/08/04 11:33:59;;;;;;;40.78;6.47;;;;;;;;;;5035253;28;20047;-51
2022/08/04 11:36:32;;;;;;;59.65;9.18;;;;;;;;;;5035088;28;20041;-52
2022/08/04 11:39:03;;;;;;;60.38;8.90;;;;;;;;;;5034940;28;20442;-58
2022/08/04 11:41:42;;;;;;;49.15;7.07;;;;;;;;;;5033786;28;20582;-59
2022/08/04 11:44:12;;;;;;;57.83;8.40;;;;;;;;;;5033938;28;20099;-59
2022/08/04 11:46:44;;;;;;;113.90;13.43;;;;;;;;;;5034821;28;20022;-59
2022/08/04 11:49:15;;;;;;;89.28;14.27;;;;;;;;;;5034980;28;20041;-60
2022/08/04 11:51:43;;;;;;;65.10;9.82;;;;;;;;;;5034699;28;20071;-60
2022/08/04 11:54:11;;;;;;;62.60;9.25;;;;;;;;;;5034675;28;20036;-60
2022/08/04 11:56:38;;;;;;;55.85;8.68;;;;;;;;;;5034680;28;20026;-60
2022/08/04 11:59:07;;;;;;;71.35;9.80;;;;;;;;;;5034888;28;20057;-61
2022/08/04 12:01:52;;;;;;;94.43;12.85;;;;;;;;;;5034702;28;20021;-60
2022/08/04 12:04:26;;;;;;;80.32;11.35;;;;;;;;;;5035119;28;20415;-60
2022/08/04 12:06:57;;;;;;;76.07;11.20;;;;;;;;;;5034499;28;20045;-61
2022/08/04 12:09:42;;;;;;;82.15;12.13;;;;;;;;;;5034645;28;20018;-60
2022/08/04 12:12:15;;;;;;;73.68;12.10;;;;;;;;;;5032248;28;20021;-59
2022/08/04 12:14:52;;;;;;;65.43;11.43;;;;;;;;;;5034568;28;20116;-61
2022/08/04 12:17:25;;;;;;;66.78;10.98;;;;;;;;;;5034423;28;20022;-60
2022/08/04 12:19:55;;;;;;;54.97;10.02;;;;;;;;;;5034426;28;20028;-61
2022/08/04 12:22:26;;;;;;;62.13;11.13;;;;;;;;;;5027444;22;20139;-59
2022/08/04 12:24:58;;;;;;;47.05;8.50;;;;;;;;;;4996951;28;20034;-60
2022/08/04 12:27:25;;;;;;;;;;;;;;;;;;5014834;28;20084;-59
2022/08/04 12:29:53;;;;;;;53.53;9.50;;;;;;;;;;5014519;28;19917;-59
2022/08/04 12:32:32;;;;;;;62.78;10.13;;;;;;;;;;5013898;28;20025;-61
2022/08/04 12:35:17;;;;;;;57.25;9.18;;;;;;;;;;5014299;28;20029;-61
2022/08/04 12:37:44;;;;;;;60.75;10.00;;;;;;;;;;5014146;28;20387;-61
2022/08/04 12:40:15;;;;;;;58.58;10.55;;;;;;;;;;5014256;28;20033;-61
2022/08/04 12:42:50;;;;;;;58.35;9.63;;;;;;;;;;5014031;28;20045;-61
2022/08/04 12:45:18;;;;;;;64.88;11.18;;;;;;;;;;5014271;28;20510;-59
2022/08/04 12:47:46;;;;;;;49.80;10.10;;;;;;;;;;5014262;28;20121;-59
2022/08/04 12:50:14;;;;;;;58.67;10.68;;;;;;;;;;5014374;28;20431;-59
2022/08/04 12:52:47;;;;;;;60.95;11.10;;;;;;;;;;5014054;28;20086;-59
2022/08/04 12:55:14;;;;;;;75.13;12.23;;;;;;;;;;4995013;28;20418;-60
2022/08/04 12:57:42;;;;;;;62.00;9.93;;;;;;;;;;5014080;28;20028;-61
2022/08/04 13:00:10;;;;;;;67.50;12.35;;;;;;;;;;5013973;28;20040;-61
2022/08/04 13:02:45;;;;;;;69.47;11.15;;;;;;;;;;5013751;28;20137;-61
2022/08/04 13:05:14;;;;;;;84.28;11.48;;;;;;;;;;5013845;28;20029;-61
2022/08/04 13:07:49;;;;;;;85.00;11.77;;;;;;;;;;5013950;28;20033;-61
2022/08/04 13:10:17;;;;;;;83.47;11.20;;;;;;;;;;5013686;28;20057;-61
2022/08/04 13:12:51;;;;;;;67.30;10.63;;;;;;;;;;5013787;28;20022;-61
2022/08/04 13:15:21;;;;;;;82.75;12.65;;;;;;;;;;5013618;28;20030;-59
2022/08/04 13:17:53;;;;;;;80.35;11.63;;;;;;;;;;5013675;28;20030;-55
2022/08/04 13:20:30;;;;;;;82.72;11.93;;;;;;;;;;4995860;28;20360;-55
2022/08/04 13:23:04;;;;;;;58.08;9.85;;;;;;;;;;5013537;28;20168;-57
2022/08/04 13:25:31;;;;;;;73.00;11.32;;;;;;;;;;5013425;28;20030;-56
2022/08/04 13:27:59;;;;;;;52.45;9.00;;;;;;;;;;5013455;28;20188;-57
2022/08/04 13:30:27;;;;;;;55.88;11.13;;;;;;;;;;5013325;28;20072;-53
2022/08/04 13:32:59;;;;;;;55.28;9.75;;;;;;;;;;5013429;28;20041;-57
2022/08/04 13:35:27;;;;;;;56.60;9.30;;;;;;;;;;5011313;28;20096;-55
2022/08/04 13:37:54;;;;;;;51.65;9.02;;;;;;;;;;5012323;28;20030;-54
2022/08/04 13:40:22;;;;;;;42.03;8.32;;;;;;;;;;5024935;28;20035;-54
2022/08/04 13:42:51;;;;;;;53.63;8.98;;;;;;;;;;5032403;28;20045;-54
2022/08/04 13:45:22;;;;;;;39.72;7.40;;;;;;;;;;5032105;28;20033;-56
2022/08/04 13:47:50;;;;;;;49.47;7.95;;;;;;;;;;5032709;28;20087;-53
2022/08/04 13:50:22;;;;;;;38.42;8.02;;;;;;;;;;5032233;28;20562;-55
2022/08/04 13:52:52;;;;;;;44.38;6.95;;;;;;;;;;5032235;28;20112;-54
2022/08/04 13:55:28;;;;;;;40.05;6.80;;;;;;;;;;5032381;28;20072;-54
2022/08/04 13:58:02;;;;;;;29.23;5.47;;;;;;;;;;5032167;28;20036;-60
2022/08/04 14:00:38;;;;;;;22.77;5.70;;;;;;;;;;5014163;28;20033;-59
2022/08/04 14:03:07;;;;;;;32.50;5.32;;;;;;;;;;5032151;28;20029;-59
2022/08/04 14:05:34;;;;;;;29.83;5.18;;;;;;;;;;5031729;28;20096;-59
2022/08/04 14:08:21;;;;;;;19.08;4.10;;;;;;;;;;5031942;28;20075;-59
2022/08/04 14:10:57;;;;;;;25.23;4.32;;;;;;;;;;5031848;28;20104;-59
2022/08/04 14:13:31;;;;;;;24.42;4.68;;;;;;;;;;5031918;28;20029;-59
2022/08/04 14:15:58;;;;;;;16.38;3.75;;;;;;;;;;5032156;28;20025;-59
2022/08/04 14:18:27;;;;;;;16.73;3.58;;;;;;;;;;5031867;28;20017;-59
2022/08/04 14:21:11;;;;;;;17.73;3.50;;;;;;;;;;5031674;28;20042;-59
2022/08/04 14:24:04;;;;;;;18.23;3.90;;;;;;;;;;5031868;28;20399;-59
2022/08/04 14:26:35;;;;;;;17.92;3.53;;;;;;;;;;5027794;28;20487;-59
2022/08/04 14:29:08;;;;;;;11.57;3.80;;;;;;;;;;5031841;28;20038;-59
2022/08/04 14:31:35;;;;;;;34.33;4.93;;;;;;;;;;5031742;28;20260;-60
2022/08/04 14:34:02;;;;;;;14.75;3.95;;;;;;;;;;5031925;28;20030;-59
2022/08/04 14:36:39;;;;;;;21.83;4.20;;;;;;;;;;5031533;28;20025;-61
2022/08/04 14:39:06;;;;;;;19.00;3.70;;;;;;;;;;5031679;28;20100;-62
2022/08/04 14:41:53;;;;;;;12.48;3.22;;;;;;;;;;5031774;28;20037;-60
2022/08/04 14:44:20;;;;;;;13.32;3.00;;;;;;;;;;5031677;28;20061;-61
2022/08/04 14:46:51;;;;;;;21.40;3.80;;;;;;;;;;5031760;28;20057;-61
2022/08/04 14:49:18;;;;;;;15.65;3.47;;;;;;;;;;5028527;28;20026;-60
2022/08/04 14:51:57;;;;;;;10.30;3.75;;;;;;;;;;5011692;28;20502;-60
2022/08/04 14:54:32;;;;;;;13.25;3.10;;;;;;;;;;5011846;28;20441;-60
2022/08/04 14:57:08;;;;;;;10.93;2.83;;;;;;;;;;5012051;28;20105;-58
2022/08/04 14:59:45;;;;;;;8.50;2.50;;;;;;;;;;4993981;28;20026;-58
2022/08/04 15:02:13;;;;;;;9.20;2.50;;;;;;;;;;5011720;28;20112;-58
2022/08/04 15:04:41;;;;;;;9.65;2.80;;;;;;;;;;5012129;28;20033;-58
2022/08/04 15:07:09;;;;;;;13.52;3.00;;;;;;;;;;5011625;28;20530;-59
2022/08/04 15:09:36;;;;;;;14.60;3.58;;;;;;;;;;5011933;28;20040;-58
2022/08/04 15:12:03;;;;;;;24.00;3.13;;;;;;;;;;5012056;28;20032;-58
2022/08/04 15:14:31;;;;;;;14.48;3.25;;;;;;;;;;5021918;28;20075;-57
2022/08/04 15:16:58;;;;;;;13.48;3.58;;;;;;;;;;5031490;28;20021;-61